createdAt,value
2023-03-12T00:02:19.568Z,96.00
2023-03-12T00:04:46.780Z,95.38
2023-03-12T00:07:14.378Z,95.03
2023-03-12T00:09:41.692Z,93.92
2023-03-12T00:12:10.264Z,94.16
2023-03-12T00:14:37.785Z,93.26
2023-03-12T00:17:05.270Z,92.67
2023-03-12T00:19:32.612Z,93.28
2023-03-12T00:22:01.098Z,93.04
2023-03-12T00:24:28.465Z,93.05
2023-03-12T00:26:56.305Z,92.69
2023-03-12T00:29:23.939Z,92.32
2023-03-12T00:31:52.572Z,92.36
2023-03-12T00:34:20.914Z,92.69
2023-03-12T00:36:51.399Z,93.15
2023-03-12T00:39:18.939Z,93.21
2023-03-12T00:41:46.349Z,93.72
2023-03-12T00:44:13.854Z,94.39
2023-03-12T00:46:41.251Z,94.55
2023-03-12T00:49:08.887Z,94.94
2023-03-12T00:51:38.725Z,95.11
2023-03-12T00:54:06.400Z,95.01
2023-03-12T00:56:35.820Z,95.38
2023-03-12T00:59:03.245Z,95.69
2023-03-12T01:01:32.654Z,96.09
2023-03-12T01:04:00.204Z,96.80
2023-03-12T01:06:27.761Z,97.21
2023-03-12T01:08:56.201Z,97.58
2023-03-12T01:11:23.855Z,97.52
2023-03-12T01:13:52.098Z,97.42
2023-03-12T01:16:19.630Z,97.65
2023-03-12T01:18:49.041Z,97.69
2023-03-12T01:21:16.412Z,97.56
2023-03-12T01:23:44.065Z,97.51
2023-03-12T01:26:11.407Z,97.60
2023-03-12T01:28:39.919Z,97.07
2023-03-12T01:31:14.136Z,97.64
2023-03-12T01:33:42.547Z,98.17
2023-03-12T01:36:23.392Z,98.46
2023-03-12T01:38:56.204Z,98.62
2023-03-12T01:41:26.194Z,98.92
2023-03-12T01:43:54.381Z,98.84
2023-03-12T01:46:29.634Z,99.47
2023-03-12T01:49:09.058Z,100.00
2023-03-12T01:51:43.284Z,100.00
2023-03-12T01:54:20.009Z,100.00
2023-03-12T01:56:48.098Z,100.00
2023-03-12T01:59:29.419Z,100.00
2023-03-12T02:01:57.175Z,100.00
2023-03-12T02:04:28.209Z,99.93
2023-03-12T02:07:00.769Z,99.94
2023-03-12T02:09:29.062Z,100.00
2023-03-12T02:11:56.234Z,100.00
2023-03-12T02:14:24.078Z,100.00
2023-03-12T02:16:54.525Z,100.00
2023-03-12T02:19:41.897Z,100.00
2023-03-12T02:22:11.479Z,100.00
2023-03-12T02:25:04.712Z,100.00
2023-03-12T02:27:34.362Z,100.00
2023-03-12T02:30:03.153Z,100.00
2023-03-12T02:32:37.087Z,100.00
2023-03-12T02:35:05.394Z,100.00
2023-03-12T02:37:33.081Z,100.00
2023-03-12T02:40:06.299Z,100.00
2023-03-12T02:42:33.737Z,100.00
2023-03-12T02:45:03.609Z,100.00
2023-03-12T02:47:30.935Z,100.00
2023-03-12T02:49:58.404Z,99.84
2023-03-12T02:52:35.790Z,98.31
2023-03-12T02:55:06.254Z,97.01
2023-03-12T02:57:37.814Z,96.12
2023-03-12T03:00:12.710Z,95.25
2023-03-12T03:02:41.607Z,94.57
2023-03-12T03:05:10.887Z,94.00
2023-03-12T03:07:38.166Z,93.68
2023-03-12T03:10:07.406Z,93.46
2023-03-12T03:12:37.322Z,93.28
2023-03-12T03:15:05.591Z,93.06
2023-03-12T03:17:33.752Z,92.84
2023-03-12T03:20:01.383Z,92.59
2023-03-12T03:22:34.317Z,92.40
2023-03-12T03:25:14.113Z,91.91
2023-03-12T03:27:41.535Z,91.62
2023-03-12T03:30:09.684Z,90.72
2023-03-12T03:32:39.472Z,90.66
2023-03-12T03:35:08.226Z,90.81
2023-03-12T03:37:35.503Z,90.53
2023-03-12T03:40:02.795Z,90.33
2023-03-12T03:42:30.383Z,90.12
2023-03-12T03:44:57.783Z,89.48
2023-03-12T03:47:25.255Z,88.76
2023-03-12T03:49:52.751Z,87.80
2023-03-12T03:52:20.194Z,87.01
2023-03-12T03:54:47.627Z,86.60
2023-03-12T03:57:15.001Z,86.44
2023-03-12T03:59:42.528Z,86.41
2023-03-12T04:02:10.061Z,86.54
2023-03-12T04:04:37.468Z,86.13
2023-03-12T04:07:04.977Z,85.40
2023-03-12T04:09:32.781Z,85.29
2023-03-12T04:12:00.312Z,85.07
2023-03-12T04:14:28.070Z,84.58
2023-03-12T04:16:57.359Z,83.71
2023-03-12T04:19:24.725Z,83.49
2023-03-12T04:21:52.231Z,82.27
2023-03-12T04:24:20.607Z,81.79
2023-03-12T04:26:48.192Z,81.23
2023-03-12T04:29:16.125Z,80.70
2023-03-12T04:31:43.667Z,79.89
2023-03-12T04:34:14.489Z,79.50
2023-03-12T04:36:42.533Z,78.79
2023-03-12T04:39:09.966Z,78.57
2023-03-12T04:41:37.497Z,78.34
2023-03-12T04:44:05.760Z,77.81
2023-03-12T04:46:32.915Z,77.51
2023-03-12T04:49:02.882Z,77.07
2023-03-12T04:51:30.997Z,77.21
2023-03-12T04:53:59.305Z,77.03
2023-03-12T04:56:26.916Z,76.36
2023-03-12T04:58:56.349Z,75.99
2023-03-12T05:01:28.028Z,75.95
2023-03-12T05:03:55.414Z,76.15
2023-03-12T05:06:25.148Z,76.10
2023-03-12T05:08:53.314Z,76.04
2023-03-12T05:11:21.651Z,75.61
2023-03-12T05:13:49.170Z,75.25
2023-03-12T05:16:17.417Z,75.21
2023-03-12T05:18:50.861Z,75.28
2023-03-12T05:21:21.349Z,75.11
2023-03-12T05:23:49.110Z,74.22
2023-03-12T05:26:27.228Z,74.51
2023-03-12T05:28:55.055Z,74.24
2023-03-12T05:31:22.580Z,73.87
2023-03-12T05:33:52.707Z,73.21
2023-03-12T05:36:21.601Z,72.66
2023-03-12T05:38:51.284Z,72.44
2023-03-12T05:41:22.386Z,71.86
2023-03-12T05:43:51.991Z,71.73
2023-03-12T05:46:19.644Z,71.22
2023-03-12T05:48:50.118Z,70.84
2023-03-12T05:51:17.546Z,70.41
2023-03-12T05:53:45.070Z,70.17
2023-03-12T05:56:17.444Z,69.94
2023-03-12T05:58:45.103Z,69.10
2023-03-12T06:01:16.651Z,68.55
2023-03-12T06:03:43.740Z,68.50
2023-03-12T06:06:11.384Z,68.34
2023-03-12T06:08:40.019Z,68.42
2023-03-12T06:11:07.534Z,67.60
2023-03-12T06:13:35.148Z,67.27
2023-03-12T06:16:24.510Z,67.29
2023-03-12T06:18:57.714Z,66.31
2023-03-12T06:21:25.851Z,66.42
2023-03-12T06:23:53.724Z,66.92
2023-03-12T06:26:23.239Z,66.73
2023-03-12T06:28:51.924Z,66.87
2023-03-12T06:31:20.510Z,67.26
2023-03-12T06:33:48.546Z,67.27
2023-03-12T06:36:15.968Z,66.61
2023-03-12T06:38:44.472Z,66.50
2023-03-12T06:41:14.311Z,66.52
2023-03-12T06:43:43.128Z,66.44
2023-03-12T06:46:14.177Z,66.99
2023-03-12T06:48:49.737Z,66.34
2023-03-12T06:51:17.698Z,67.05
2023-03-12T06:53:46.768Z,67.20
2023-03-12T06:56:15.383Z,68.42
2023-03-12T06:58:43.047Z,65.76
2023-03-12T07:01:11.575Z,66.91
2023-03-12T07:03:38.749Z,66.93
2023-03-12T07:06:13.113Z,67.85
2023-03-12T07:08:40.512Z,66.96
2023-03-12T07:11:08.277Z,66.90
2023-03-12T07:13:35.645Z,67.30
2023-03-12T07:16:03.357Z,68.42
2023-03-12T07:18:30.579Z,67.59
2023-03-12T07:20:58.243Z,66.90
2023-03-12T07:23:27.178Z,66.88
2023-03-12T07:25:57.590Z,67.54
2023-03-12T07:28:25.688Z,65.87
2023-03-12T07:30:53.180Z,66.88
2023-03-12T07:33:22.458Z,66.70
2023-03-12T07:35:51.922Z,68.25
2023-03-12T07:38:20.181Z,66.77
2023-03-12T07:40:52.410Z,65.57
2023-03-12T07:43:26.303Z,66.43
2023-03-12T07:45:56.208Z,65.48
2023-03-12T07:48:23.387Z,65.79
2023-03-12T07:50:50.989Z,66.49
2023-03-12T07:53:25.385Z,66.41
2023-03-12T07:55:53.125Z,65.32
2023-03-12T07:58:21.369Z,64.84
2023-03-12T08:00:50.848Z,65.26
2023-03-12T08:03:18.219Z,66.76
2023-03-12T08:05:45.727Z,66.64
2023-03-12T08:08:14.193Z,64.98
2023-03-12T08:10:42.690Z,65.21
2023-03-12T08:13:10.284Z,63.34
2023-03-12T08:15:37.633Z,65.58
2023-03-12T08:18:05.113Z,65.43
2023-03-12T08:20:33.592Z,66.22
2023-03-12T08:23:02.016Z,65.28
2023-03-12T08:25:29.819Z,63.82
2023-03-12T08:28:07.282Z,65.04
2023-03-12T08:30:34.605Z,64.08
2023-03-12T08:33:03.158Z,64.15
2023-03-12T08:35:31.667Z,66.15
2023-03-12T08:38:01.318Z,63.70
2023-03-12T08:40:29.705Z,63.32
2023-03-12T08:42:57.050Z,64.59
2023-03-12T08:45:25.476Z,64.74
2023-03-12T08:47:53.042Z,63.88
2023-03-12T08:50:23.189Z,64.14
2023-03-12T08:52:50.443Z,64.26
2023-03-12T08:55:18.966Z,63.42
2023-03-12T08:57:48.217Z,65.32
2023-03-12T09:00:18.170Z,64.45
2023-03-12T09:02:47.070Z,62.99
2023-03-12T09:05:14.953Z,64.36
2023-03-12T09:07:42.380Z,63.44
2023-03-12T09:10:10.261Z,63.53
2023-03-12T09:12:37.789Z,62.21
2023-03-12T09:15:05.631Z,64.00
2023-03-12T09:17:32.802Z,62.96
2023-03-12T09:20:00.473Z,61.71
2023-03-12T09:22:30.493Z,62.54
2023-03-12T09:24:58.152Z,62.21
2023-03-12T09:27:25.690Z,62.52
2023-03-12T09:30:00.637Z,63.22
2023-03-12T09:32:29.205Z,62.49
2023-03-12T09:34:56.841Z,61.37
2023-03-12T09:37:24.581Z,60.75
2023-03-12T09:39:52.966Z,60.11
2023-03-12T09:42:40.539Z,59.85
2023-03-12T09:45:15.902Z,57.68
2023-03-12T09:47:55.784Z,57.45
2023-03-12T09:50:43.856Z,57.09
2023-03-12T09:53:26.254Z,55.81
2023-03-12T09:55:56.883Z,57.30
2023-03-12T09:58:31.972Z,57.18
2023-03-12T10:01:23.331Z,57.12
2023-03-12T10:03:52.988Z,55.94
2023-03-12T10:06:30.293Z,55.52
2023-03-12T10:09:19.986Z,54.02
2023-03-12T10:12:01.596Z,55.35
2023-03-12T10:15:00.818Z,54.62
2023-03-12T10:17:43.055Z,52.07
2023-03-12T10:20:13.337Z,51.48
2023-03-12T10:23:06.886Z,51.33
2023-03-12T10:25:53.469Z,52.67
2023-03-12T10:28:48.603Z,52.43
2023-03-12T10:32:04.033Z,52.86
2023-03-12T10:34:47.890Z,48.85
2023-03-12T10:37:22.366Z,49.62
2023-03-12T10:39:51.435Z,50.29
2023-03-12T10:42:24.391Z,50.18
2023-03-12T10:44:59.483Z,50.79
2023-03-12T10:47:39.916Z,50.77
2023-03-12T10:50:21.373Z,51.73
2023-03-12T10:52:52.304Z,52.10
2023-03-12T10:55:29.995Z,51.13
2023-03-12T10:58:03.136Z,50.02
2023-03-12T11:00:32.699Z,50.34
2023-03-12T11:03:05.877Z,49.49
2023-03-12T11:05:37.522Z,49.70
2023-03-12T11:08:24.788Z,48.18
2023-03-12T11:11:00.917Z,47.60
2023-03-12T11:13:30.798Z,48.81
2023-03-12T11:16:02.517Z,46.89
2023-03-12T11:18:32.500Z,47.41
2023-03-12T11:21:11.812Z,47.33
2023-03-12T11:23:43.494Z,47.73
2023-03-12T11:26:22.989Z,48.10
2023-03-12T11:29:01.689Z,46.07
2023-03-12T11:31:41.483Z,45.41
2023-03-12T11:34:16.272Z,45.47
2023-03-12T11:37:27.658Z,44.62
2023-03-12T11:40:22.433Z,46.42
2023-03-12T11:43:39.904Z,46.35
2023-03-12T11:46:32.708Z,45.86
2023-03-12T11:49:18.490Z,46.54
2023-03-12T11:52:07.782Z,48.17
2023-03-12T11:54:46.900Z,46.09
2023-03-12T11:57:14.361Z,45.81
2023-03-12T12:00:09.495Z,46.27
2023-03-12T12:02:55.478Z,46.04
2023-03-12T12:05:47.787Z,47.91
2023-03-12T12:08:36.762Z,48.61
2023-03-12T12:11:10.104Z,46.68
2023-03-12T12:13:56.747Z,48.30
2023-03-12T12:16:29.388Z,48.50
2023-03-12T12:19:18.587Z,48.57
2023-03-12T12:22:09.906Z,47.96
2023-03-12T12:25:14.956Z,47.68
2023-03-12T12:28:07.596Z,48.17
2023-03-12T12:30:45.793Z,52.36
2023-03-12T12:33:24.174Z,51.79
2023-03-12T12:35:51.791Z,52.15
2023-03-12T12:38:42.346Z,52.62
2023-03-12T12:41:18.352Z,51.29
2023-03-12T12:43:50.392Z,50.47
2023-03-12T12:46:30.041Z,50.80
2023-03-12T12:49:07.183Z,48.95
2023-03-12T12:51:44.346Z,49.44
2023-03-12T12:54:29.105Z,49.76
2023-03-12T12:57:04.058Z,50.01
2023-03-12T13:00:04.130Z,49.29
2023-03-12T13:02:35.268Z,49.08
2023-03-12T13:05:03.809Z,49.92
2023-03-12T13:07:34.522Z,51.33
2023-03-12T13:10:06.945Z,49.92
2023-03-12T13:12:42.478Z,48.90
2023-03-12T13:15:32.592Z,49.24
2023-03-12T13:17:59.698Z,47.86
2023-03-12T13:20:37.762Z,48.45
2023-03-12T13:23:33.324Z,47.28
2023-03-12T13:26:09.759Z,47.25
2023-03-12T13:29:11.311Z,47.19
2023-03-12T13:31:41.259Z,44.73
2023-03-12T13:34:19.617Z,46.90
2023-03-12T13:37:18.604Z,44.74
2023-03-12T13:39:46.040Z,46.94
2023-03-12T13:42:25.193Z,48.03
2023-03-12T13:44:53.851Z,48.03
2023-03-12T13:47:30.976Z,47.02
2023-03-12T13:50:17.885Z,45.55
2023-03-12T13:53:20.876Z,45.80
2023-03-12T13:56:01.876Z,43.91
2023-03-12T13:58:30.241Z,45.02
2023-03-12T14:01:05.330Z,43.57
2023-03-12T14:03:48.376Z,43.70
2023-03-12T14:06:21.023Z,42.54
2023-03-12T14:09:03.891Z,40.84
2023-03-12T14:11:44.240Z,38.83
2023-03-12T14:14:38.760Z,39.27
2023-03-12T14:17:14.213Z,38.87
2023-03-12T14:20:08.092Z,37.31
2023-03-12T14:22:40.176Z,38.77
2023-03-12T14:25:34.025Z,39.12
2023-03-12T14:28:03.107Z,41.59
2023-03-12T14:30:50.865Z,41.37
2023-03-12T14:33:26.377Z,41.75
2023-03-12T14:36:13.285Z,43.03
2023-03-12T14:38:44.565Z,41.90
2023-03-12T14:41:32.073Z,42.51
2023-03-12T14:44:26.626Z,46.04
2023-03-12T14:47:11.473Z,43.84
2023-03-12T14:49:46.838Z,44.23
2023-03-12T14:52:25.000Z,44.08
2023-03-12T14:55:01.966Z,44.66
2023-03-12T14:57:30.412Z,44.81
2023-03-12T15:00:02.482Z,44.67
2023-03-12T15:02:35.919Z,45.65
2023-03-12T15:05:06.453Z,44.61
2023-03-12T15:07:42.050Z,44.76
2023-03-12T15:10:30.857Z,43.47
2023-03-12T15:13:00.380Z,42.20
2023-03-12T15:15:36.363Z,42.80
2023-03-12T15:18:08.111Z,43.00
2023-03-12T15:20:36.869Z,43.41
2023-03-12T15:23:06.691Z,42.42
2023-03-12T15:25:36.099Z,44.16
2023-03-12T15:28:12.043Z,43.83
2023-03-12T15:30:41.219Z,42.87
2023-03-12T15:33:19.056Z,43.96
2023-03-12T15:36:03.178Z,42.98
2023-03-12T15:38:35.290Z,44.77
2023-03-12T15:41:08.669Z,44.19
2023-03-12T15:43:38.147Z,44.24
2023-03-12T15:46:07.904Z,44.64
2023-03-12T15:48:48.815Z,46.94
2023-03-12T15:51:38.465Z,44.09
2023-03-12T15:54:25.242Z,45.47
2023-03-12T15:56:53.046Z,44.98
2023-03-12T15:59:25.924Z,45.65
2023-03-12T16:01:57.675Z,44.98
2023-03-12T16:04:26.199Z,44.45
2023-03-12T16:06:55.995Z,45.66
2023-03-12T16:09:27.649Z,45.92
2023-03-12T16:11:56.015Z,45.42
2023-03-12T16:14:36.854Z,44.82
2023-03-12T16:17:11.829Z,44.97
2023-03-12T16:19:40.255Z,46.29
2023-03-12T16:22:09.235Z,46.46
2023-03-12T16:24:38.099Z,46.92
2023-03-12T16:27:11.517Z,47.50
2023-03-12T16:29:42.978Z,47.33
2023-03-12T16:32:15.891Z,48.19
2023-03-12T16:34:45.689Z,46.72
2023-03-12T16:37:15.832Z,46.69
2023-03-12T16:39:46.753Z,46.09
2023-03-12T16:42:17.943Z,46.88
2023-03-12T16:44:47.352Z,50.72
2023-03-12T16:47:16.554Z,48.54
2023-03-12T16:49:45.045Z,49.17
2023-03-12T16:52:22.585Z,50.52
2023-03-12T16:55:01.441Z,53.14
2023-03-12T16:57:36.074Z,52.15
2023-03-12T17:00:09.494Z,51.42
2023-03-12T17:02:37.135Z,51.33
2023-03-12T17:05:06.206Z,51.82
2023-03-12T17:07:35.330Z,52.51
2023-03-12T17:10:04.555Z,52.98
2023-03-12T17:12:36.630Z,53.97
2023-03-12T17:15:09.322Z,55.15
2023-03-12T17:17:37.612Z,54.35
2023-03-12T17:20:08.956Z,55.17
2023-03-12T17:22:38.716Z,55.26
2023-03-12T17:25:23.897Z,54.21
2023-03-12T17:27:51.782Z,53.50
2023-03-12T17:30:21.621Z,52.78
2023-03-12T17:32:51.043Z,52.93
2023-03-12T17:35:20.199Z,52.85
2023-03-12T17:37:51.887Z,52.18
2023-03-12T17:40:19.913Z,53.04
2023-03-12T17:42:48.058Z,52.18
2023-03-12T17:45:17.685Z,52.21
2023-03-12T17:47:46.100Z,51.82
2023-03-12T17:50:15.574Z,50.97
2023-03-12T17:52:43.941Z,51.75
2023-03-12T17:55:14.075Z,50.99
2023-03-12T17:57:45.278Z,50.13
2023-03-12T18:00:17.004Z,49.86
2023-03-12T18:02:45.091Z,50.70
2023-03-12T18:05:14.287Z,49.71
2023-03-12T18:07:42.886Z,50.25
2023-03-12T18:10:15.552Z,49.48
2023-03-12T18:12:43.374Z,50.00
2023-03-12T18:15:14.762Z,49.75
2023-03-12T18:17:50.765Z,49.93
2023-03-12T18:20:29.001Z,49.73
2023-03-12T18:23:05.707Z,49.83
2023-03-12T18:25:34.289Z,49.81
2023-03-12T18:28:05.757Z,49.56
2023-03-12T18:30:34.818Z,50.88
2023-03-12T18:33:03.005Z,50.45
2023-03-12T18:35:32.449Z,50.28
2023-03-12T18:38:00.941Z,50.21
2023-03-12T18:40:30.770Z,51.06
2023-03-12T18:43:00.887Z,51.43
2023-03-12T18:45:32.264Z,51.18
2023-03-12T18:48:00.990Z,51.35
2023-03-12T18:50:29.395Z,52.17
2023-03-12T18:52:57.846Z,52.06
2023-03-12T18:55:26.379Z,52.05
2023-03-12T18:58:09.658Z,52.25
2023-03-12T19:00:43.726Z,52.43
2023-03-12T19:03:11.866Z,52.82
2023-03-12T19:05:41.085Z,52.56
2023-03-12T19:08:17.074Z,52.53
2023-03-12T19:10:47.195Z,52.55
2023-03-12T19:13:15.762Z,52.98
2023-03-12T19:15:44.555Z,52.66
2023-03-12T19:18:14.578Z,52.23
2023-03-12T19:20:42.924Z,52.86
2023-03-12T19:23:11.397Z,52.73
2023-03-12T19:25:40.379Z,52.60
2023-03-12T19:28:08.847Z,52.71
2023-03-12T19:30:39.466Z,52.03
2023-03-12T19:33:07.915Z,52.94
2023-03-12T19:35:42.643Z,52.94
2023-03-12T19:38:11.721Z,52.52
2023-03-12T19:40:41.908Z,52.47
2023-03-12T19:43:10.165Z,52.24
2023-03-12T19:45:38.398Z,52.73
2023-03-12T19:48:07.050Z,52.47
2023-03-12T19:50:36.355Z,52.65
2023-03-12T19:53:07.402Z,53.10
2023-03-12T19:55:37.152Z,52.92
2023-03-12T19:58:05.647Z,54.29
2023-03-12T20:00:36.073Z,53.79
2023-03-12T20:03:05.912Z,54.44
2023-03-12T20:05:34.200Z,53.86
2023-03-12T20:08:02.318Z,54.49
2023-03-12T20:10:31.297Z,54.98
2023-03-12T20:12:59.891Z,54.58
2023-03-12T20:15:28.167Z,54.81
2023-03-12T20:18:01.672Z,54.64
2023-03-12T20:20:33.318Z,54.49
2023-03-12T20:23:01.529Z,54.83
2023-03-12T20:25:29.951Z,55.01
2023-03-12T20:28:00.825Z,54.62
2023-03-12T20:30:29.600Z,55.06
2023-03-12T20:32:59.005Z,55.52
2023-03-12T20:35:27.667Z,54.90
2023-03-12T20:37:55.922Z,55.29
2023-03-12T20:40:25.606Z,55.19
2023-03-12T20:43:00.268Z,55.54
2023-03-12T20:45:28.559Z,55.27
2023-03-12T20:47:59.960Z,55.60
2023-03-12T20:50:30.605Z,55.68
2023-03-12T20:53:03.649Z,56.01
2023-03-12T20:55:32.217Z,55.85
2023-03-12T20:58:01.035Z,55.90
2023-03-12T21:00:30.230Z,56.00
2023-03-12T21:02:58.464Z,56.14
2023-03-12T21:05:28.470Z,56.29
2023-03-12T21:07:58.481Z,56.82
2023-03-12T21:10:26.501Z,56.91
2023-03-12T21:12:55.113Z,56.43
2023-03-12T21:15:23.738Z,56.55
2023-03-12T21:17:57.728Z,56.98
2023-03-12T21:20:26.096Z,56.64
2023-03-12T21:22:54.714Z,56.91
2023-03-12T21:25:24.644Z,56.62
2023-03-12T21:27:53.282Z,57.29
2023-03-12T21:30:40.001Z,57.36
2023-03-12T21:33:07.730Z,57.59
2023-03-12T21:35:37.315Z,57.46
2023-03-12T21:38:04.590Z,57.20
2023-03-12T21:40:33.162Z,57.63
2023-03-12T21:43:00.848Z,57.80
2023-03-12T21:45:28.632Z,57.80
2023-03-12T21:47:56.146Z,58.66
2023-03-12T21:50:23.627Z,58.21
2023-03-12T21:52:52.831Z,58.69
2023-03-12T21:55:20.334Z,58.64
2023-03-12T21:57:48.894Z,58.92
2023-03-12T22:00:17.155Z,59.14
2023-03-12T22:02:45.787Z,59.96
2023-03-12T22:05:13.508Z,60.64
2023-03-12T22:07:40.859Z,60.61
2023-03-12T22:10:12.202Z,61.58
2023-03-12T22:12:41.060Z,62.11
2023-03-12T22:15:09.155Z,62.07
2023-03-12T22:17:36.696Z,61.55
2023-03-12T22:20:05.327Z,60.89
2023-03-12T22:22:33.778Z,61.85
2023-03-12T22:25:01.298Z,62.37
2023-03-12T22:27:35.873Z,62.16
2023-03-12T22:30:03.674Z,62.27
2023-03-12T22:32:31.952Z,63.31
2023-03-12T22:35:02.195Z,62.64
2023-03-12T22:37:29.574Z,62.42
2023-03-12T22:40:01.716Z,63.53
2023-03-12T22:42:29.160Z,63.55
2023-03-12T22:44:56.629Z,62.97
2023-03-12T22:47:24.197Z,63.85
2023-03-12T22:49:53.054Z,63.40
2023-03-12T22:52:20.485Z,62.93
2023-03-12T22:54:47.898Z,63.11
2023-03-12T22:57:15.718Z,63.01
2023-03-12T22:59:44.902Z,62.46
2023-03-12T23:02:12.522Z,62.15
2023-03-12T23:04:39.776Z,61.63
2023-03-12T23:07:14.043Z,62.17
2023-03-12T23:09:44.568Z,62.40
2023-03-12T23:12:13.062Z,62.36
2023-03-12T23:14:47.625Z,62.73
2023-03-12T23:17:17.146Z,62.35
2023-03-12T23:19:44.633Z,62.74
2023-03-12T23:22:12.434Z,63.23
2023-03-12T23:24:40.421Z,63.64
2023-03-12T23:27:08.055Z,64.10
2023-03-12T23:29:36.441Z,64.27
2023-03-12T23:32:18.703Z,65.21
2023-03-12T23:34:46.214Z,65.29
2023-03-12T23:37:14.734Z,65.43
2023-03-12T23:39:53.972Z,65.49
2023-03-12T23:42:23.532Z,65.58
2023-03-12T23:44:50.866Z,65.79
2023-03-12T23:47:18.377Z,66.15
2023-03-12T23:49:47.872Z,66.22
2023-03-12T23:52:15.321Z,66.52
2023-03-12T23:54:42.685Z,67.22
2023-03-12T23:57:11.241Z,68.04
2023-03-12T23:59:38.603Z,68.72
